Pagrindinis puslapis
METAR-TAF:

METAR-TAF

Oro uostai :

Grand Terkas, Terksas ir Kaikosas

platuma: 21-26-40N, ilguma: 071-08-32W, Aukštis: 4 m

Dabartinis oras

Ataskaita buvo paskelbta 9 valandos ir 9 minutes, ne 20:00 UTC
Vėjas 11 kt iš Rytų
Temperatūra 27°C
Drėgmė 84%
Slėgis 1018 hPa
Matomumas 10 km arba daugiau
Išsisklaidę debesys ne aukštis 1200 ft, aukštai iškilę kamuoliniai debesys.
Išsisklaidę debesys ne aukštis 5000 ft

METAR: MBGT 102000Z 09011KT 9999 SCT012TCU SCT050 27/24 Q1018

Laikas: 01:09 (05:09 UTC)

Prognozė

Ataskaita buvo paskelbta 7 valandos ir 54 minutes, ne 21:15 UTC
Prognozė galioja nuo 11 metu 00 UTC su 11 metu 24 UTC
Vėjas 11 kt iš Rytų su gūsio iki 21 kt
Matomumas 10 km arba daugiau
Išsisklaidę debesys ne aukštis 2000 ft
Tapsmas
nuo 11 metu 13 UTC su 11 metu 15 UTC
Išsisklaidę debesys ne aukštis 1800 ft
Liūtis kaimynystėje

TAF: MBGT 102115Z 1100/1124 09011G21KT 9999 SCT020 BECMG 1113/1115 VCSH SCT018

Orai ataskaitas ir orų prognozės (METAR, TAF).

turimą stotys yra geltonos ir raudonos taškus žemėlapyje.

Perkelti pele per norėdami pamatyti stoties vardą.

Tada spustelėkite, norėdami matyti oro stebėjimo ir prognozės.

Norėdami pakeisti žemėlapį: spustelėkite ant žalios mygtukų su juodo kryžiaus žemyn,; žalią mygtuką su brūkšneliu, jei norite nutolinti; arba žalių rodyklių gretimoms žemėlapius.


METAR-TAF: